Time;durP1;ratioP1;P1;durP2;ratioP2;P2;SDS_P1;SDS_P2;PMS_P1;PMS_P2;Temp;Humidity;BMP_temperature;BMP_pressure;BME280_temperature;BME280_humidity;BME280_pressure;Samples;Min_cycle;Max_cycle;Signal;HPM_P1;HPM_P2
2021/05/29 00:00:48;;;;;;;7.50;6.38;;;12.30;99.90;;;;;;5039500;28;20049;-82
2021/05/29 00:03:15;;;;;;;8.95;7.43;;;12.30;99.90;;;;;;5037832;28;20128;-83
2021/05/29 00:05:42;;;;;;;8.52;6.68;;;12.20;99.90;;;;;;5038526;28;20132;-84
2021/05/29 00:08:10;;;;;;;10.27;6.95;;;12.10;99.90;;;;;;5038595;28;20472;-83
2021/05/29 00:10:38;;;;;;;9.43;6.78;;;12.10;99.90;;;;;;5038071;28;20057;-82
2021/05/29 00:13:06;;;;;;;8.02;6.05;;;12.10;99.90;;;;;;5037023;28;20144;-82
2021/05/29 00:15:33;;;;;;;9.40;6.68;;;12.10;99.90;;;;;;5038216;28;20061;-82
2021/05/29 00:18:00;;;;;;;9.48;6.90;;;12.10;99.90;;;;;;5037478;28;20461;-83
2021/05/29 00:20:26;;;;;;;9.05;6.97;;;12.10;99.90;;;;;;5037830;28;20127;-83
2021/05/29 00:22:53;;;;;;;10.43;7.32;;;12.20;99.90;;;;;;5038096;28;20080;-83
2021/05/29 00:25:20;;;;;;;7.50;6.47;;;12.20;99.90;;;;;;5036718;28;20084;-83
2021/05/29 00:27:46;;;;;;;7.88;6.72;;;12.20;99.90;;;;;;5037225;28;20049;-83
2021/05/29 00:30:14;;;;;;;8.40;6.80;;;12.20;99.90;;;;;;5036476;28;20140;-83
2021/05/29 00:32:41;;;;;;;8.25;6.63;;;12.10;99.90;;;;;;5036482;28;20148;-83
2021/05/29 00:35:09;;;;;;;9.88;7.25;;;12.10;99.90;;;;;;5036236;28;20129;-84
2021/05/29 00:37:36;;;;;;;10.23;7.05;;;12.10;99.90;;;;;;5039265;28;20076;-83
2021/05/29 00:40:03;;;;;;;12.70;7.63;;;12.10;99.90;;;;;;5037378;28;20132;-84
2021/05/29 00:42:30;;;;;;;10.70;7.35;;;12.00;99.90;;;;;;5040332;28;20132;-85
2021/05/29 00:44:58;;;;;;;8.85;7.38;;;12.00;99.90;;;;;;5051495;28;20052;-85
2021/05/29 00:47:26;;;;;;;9.55;7.50;;;11.90;99.90;;;;;;5054942;28;20044;-85
2021/05/29 00:49:54;;;;;;;10.35;7.50;;;11.90;99.90;;;;;;5045232;28;20237;-84
2021/05/29 00:52:23;;;;;;;13.02;8.60;;;11.90;99.90;;;;;;5039081;28;20132;-84
2021/05/29 00:54:50;;;;;;;11.75;8.43;;;11.90;99.90;;;;;;5038232;28;20052;-83
2021/05/29 00:57:17;;;;;;;12.35;8.20;;;11.80;99.90;;;;;;5038051;28;20103;-83
2021/05/29 00:59:44;;;;;;;11.15;7.10;;;11.80;99.90;;;;;;5039083;28;20053;-82
2021/05/29 01:02:12;;;;;;;11.10;7.38;;;11.70;99.90;;;;;;5038335;28;20092;-82
2021/05/29 01:04:39;;;;;;;7.78;6.80;;;11.70;99.90;;;;;;5037640;28;20072;-82
2021/05/29 01:07:10;;;;;;;9.07;7.80;;;11.60;99.90;;;;;;5038074;28;20084;-81
2021/05/29 01:09:36;;;;;;;9.85;7.72;;;11.60;99.90;;;;;;5037966;28;20132;-82
2021/05/29 01:12:04;;;;;;;9.93;8.02;;;11.50;99.90;;;;;;5039926;28;20057;-82
2021/05/29 01:14:31;;;;;;;9.52;7.90;;;11.50;99.90;;;;;;5039001;28;20128;-82
2021/05/29 01:17:00;;;;;;;10.15;8.00;;;11.40;99.90;;;;;;5039553;28;20425;-83
2021/05/29 01:19:26;;;;;;;9.52;8.07;;;11.40;99.90;;;;;;5039602;28;20133;-80
2021/05/29 01:21:53;;;;;;;9.18;7.82;;;11.30;99.90;;;;;;5035199;28;20132;-80
2021/05/29 01:24:23;;;;;;;8.52;7.15;;;11.30;99.90;;;;;;5033961;28;20060;-79
2021/05/29 01:26:50;;;;;;;10.20;7.72;;;11.20;99.90;;;;;;5034807;28;20050;-80
2021/05/29 01:29:17;;;;;;;8.95;7.93;;;11.20;99.90;;;;;;5034899;28;20484;-79
2021/05/29 01:31:47;;;;;;;9.60;7.65;;;11.20;99.90;;;;;;5034728;28;20493;-80
2021/05/29 01:34:15;;;;;;;9.90;7.90;;;11.10;99.90;;;;;;5035806;28;20046;-80
2021/05/29 01:36:42;;;;;;;11.48;7.82;;;11.10;99.90;;;;;;5035641;28;20111;-80
2021/05/29 01:39:10;;;;;;;8.82;7.25;;;11.10;99.90;;;;;;5035508;28;20081;-80
2021/05/29 01:41:38;;;;;;;9.32;7.78;;;11.00;99.90;;;;;;5034545;28;20136;-80
2021/05/29 01:44:08;;;;;;;11.40;7.75;;;11.00;99.90;;;;;;5037549;28;20101;-80
2021/05/29 01:46:34;;;;;;;10.25;7.97;;;11.00;99.90;;;;;;5037824;28;20085;-80
2021/05/29 01:49:01;;;;;;;10.77;8.20;;;11.00;99.90;;;;;;5038395;28;20513;-81
2021/05/29 01:51:27;;;;;;;11.80;8.40;;;11.00;99.90;;;;;;5035900;28;20118;-80
2021/05/29 01:53:55;;;;;;;11.45;7.70;;;11.00;99.90;;;;;;5038955;28;20069;-80
2021/05/29 01:56:22;;;;;;;10.45;7.85;;;10.90;99.90;;;;;;5039538;28;20084;-80
2021/05/29 01:58:49;;;;;;;10.25;7.85;;;10.90;99.90;;;;;;5039748;28;20133;-81
2021/05/29 02:01:16;;;;;;;10.80;7.90;;;10.80;99.90;;;;;;5039431;28;20045;-81
2021/05/29 02:03:44;;;;;;;9.80;7.80;;;10.80;99.90;;;;;;5039102;28;20081;-80
2021/05/29 02:06:11;;;;;;;9.27;7.60;;;10.80;99.90;;;;;;5039693;28;20045;-81
2021/05/29 02:08:38;;;;;;;10.45;8.27;;;10.80;99.90;;;;;;5041443;28;20080;-81
2021/05/29 02:11:05;;;;;;;8.73;7.40;;;10.70;99.90;;;;;;5042263;28;20536;-81
2021/05/29 02:13:33;;;;;;;9.70;8.15;;;10.70;99.90;;;;;;5041206;28;20088;-81
2021/05/29 02:16:01;;;;;;;9.68;7.85;;;10.70;99.90;;;;;;5041564;28;20109;-81
2021/05/29 02:18:28;;;;;;;9.60;8.18;;;10.70;99.90;;;;;;5039160;28;20085;-81
2021/05/29 02:20:58;;;;;;;10.60;8.05;;;10.70;99.90;;;;;;5041172;28;20125;-80
2021/05/29 02:23:26;;;;;;;10.30;8.50;;;10.70;99.90;;;;;;5041537;28;20386;-81
2021/05/29 02:25:54;;;;;;;9.27;7.80;;;10.70;99.90;;;;;;5041554;28;20053;-81
2021/05/29 02:28:20;;;;;;;10.25;8.00;;;10.70;99.90;;;;;;5041255;28;20084;-81
2021/05/29 02:30:47;;;;;;;9.10;7.82;;;10.70;99.90;;;;;;5040495;28;20125;-81
2021/05/29 02:33:15;;;;;;;9.00;8.00;;;10.60;99.90;;;;;;5038555;28;20506;-81
2021/05/29 02:35:41;;;;;;;10.25;7.97;;;10.50;99.90;;;;;;5039439;28;20109;-82
2021/05/29 02:38:08;;;;;;;9.38;8.38;;;10.50;99.90;;;;;;5040659;28;20077;-81
2021/05/29 02:40:35;;;;;;;8.85;7.75;;;10.50;99.90;;;;;;5040956;28;20477;-84
2021/05/29 02:43:01;;;;;;;10.20;8.18;;;10.50;99.90;;;;;;5039360;28;20129;-82
2021/05/29 02:45:29;;;;;;;11.45;8.00;;;10.50;99.90;;;;;;5039033;28;20119;-83
2021/05/29 02:47:55;;;;;;;12.68;7.85;;;10.40;99.90;;;;;;5038332;28;20089;-83
2021/05/29 02:50:23;;;;;;;11.93;8.63;;;10.30;99.90;;;;;;5038219;28;20107;-83
2021/05/29 02:52:50;;;;;;;9.75;7.95;;;10.20;99.90;;;;;;5038690;28;20045;-81
2021/05/29 02:55:22;;;;;;;11.80;7.95;;;10.10;99.90;;;;;;5039462;28;20057;-81
2021/05/29 02:57:49;;;;;;;11.20;8.50;;;10.10;99.90;;;;;;5040885;28;20062;-82
2021/05/29 03:00:20;;;;;;;11.38;8.23;;;10.00;99.90;;;;;;5040556;28;20088;-83
2021/05/29 03:02:46;;;;;;;10.10;8.55;;;10.00;99.90;;;;;;5040688;28;20050;-83
2021/05/29 03:05:13;;;;;;;10.07;8.57;;;9.90;99.90;;;;;;5042559;28;20129;-82
2021/05/29 03:07:40;;;;;;;10.88;9.18;;;9.90;99.90;;;;;;5039972;28;20053;-83
2021/05/29 03:10:10;;;;;;;11.18;8.68;;;9.90;99.90;;;;;;5041017;28;20061;-82
2021/05/29 03:12:38;;;;;;;14.05;9.55;;;9.80;99.90;;;;;;5040489;28;20517;-83
2021/05/29 03:15:06;;;;;;;11.48;9.18;;;9.70;99.90;;;;;;5040318;28;20057;-83
2021/05/29 03:17:33;;;;;;;13.40;8.98;;;9.70;99.90;;;;;;5041730;28;20478;-82
2021/05/29 03:19:59;;;;;;;12.30;9.48;;;9.70;99.90;;;;;;5041235;28;20152;-82
2021/05/29 03:22:25;;;;;;;13.90;9.00;;;9.70;99.90;;;;;;5041610;28;20085;-82
2021/05/29 03:24:53;;;;;;;12.95;8.60;;;9.70;99.90;;;;;;5045258;28;20065;-82
2021/05/29 03:27:19;;;;;;;12.48;8.55;;;9.60;99.90;;;;;;5038903;28;20068;-83
2021/05/29 03:29:46;;;;;;;13.63;8.98;;;9.70;99.90;;;;;;5039182;28;20490;-82
2021/05/29 03:32:13;;;;;;;11.70;8.30;;;9.80;99.90;;;;;;5038614;28;20140;-82
2021/05/29 03:34:39;;;;;;;10.98;8.40;;;9.80;99.90;;;;;;5037538;28;20132;-81
2021/05/29 03:37:06;;;;;;;11.60;8.38;;;9.80;99.90;;;;;;5036883;28;20081;-80
2021/05/29 03:39:33;;;;;;;9.00;7.70;;;9.80;99.90;;;;;;5036621;28;20132;-80
2021/05/29 03:42:00;;;;;;;9.50;7.47;;;9.70;99.90;;;;;;5034964;28;20549;-79
2021/05/29 03:44:26;;;;;;;9.57;8.10;;;9.70;99.90;;;;;;5034233;28;20133;-80
2021/05/29 03:46:53;;;;;;;10.63;8.02;;;9.70;99.90;;;;;;5036404;28;20080;-80
2021/05/29 03:49:19;;;;;;;8.85;7.40;;;9.70;99.90;;;;;;5036523;28;20049;-81
2021/05/29 03:51:46;;;;;;;8.57;7.50;;;9.70;99.90;;;;;;5038884;28;20132;-81
2021/05/29 03:54:12;;;;;;;9.73;7.72;;;9.70;99.90;;;;;;5036978;28;20148;-81
2021/05/29 03:56:39;;;;;;;11.20;7.25;;;9.70;99.90;;;;;;5034980;28;20049;-80
2021/05/29 03:59:12;;;;;;;10.30;7.75;;;9.80;99.90;;;;;;5035227;28;20053;-80
2021/05/29 04:01:39;;;;;;;9.75;7.25;;;10.00;99.90;;;;;;5037150;28;20132;-80
2021/05/29 04:04:06;;;;;;;7.97;6.70;;;10.40;99.90;;;;;;5039073;28;20052;-80
2021/05/29 04:06:32;;;;;;;10.07;6.95;;;10.90;99.90;;;;;;5040170;28;20109;-82
2021/05/29 04:08:59;;;;;;;8.07;7.10;;;11.60;99.90;;;;;;5040025;28;20053;-82
2021/05/29 04:11:25;;;;;;;11.20;6.30;;;12.20;99.90;;;;;;5040050;28;20521;-83
2021/05/29 04:13:52;;;;;;;9.02;6.72;;;12.90;99.90;;;;;;5037194;28;20054;-82
2021/05/29 04:16:19;;;;;;;8.27;6.40;;;13.60;99.90;;;;;;5036152;28;20095;-81
2021/05/29 04:18:46;;;;;;;7.68;6.88;;;14.00;99.90;;;;;;5035918;28;20183;-81
2021/05/29 04:21:12;;;;;;;9.00;6.90;;;14.20;99.90;;;;;;5035869;28;20183;-82
2021/05/29 04:23:38;;;;;;;8.63;6.95;;;14.10;99.90;;;;;;5036869;28;20509;-81
2021/05/29 04:26:06;;;;;;;10.45;6.72;;;14.10;99.90;;;;;;5038028;28;20463;-81
2021/05/29 04:28:33;;;;;;;10.68;7.07;;;14.40;99.90;;;;;;5037452;28;20456;-81
2021/05/29 04:30:59;;;;;;;8.35;6.55;;;14.70;99.90;;;;;;5036144;28;20463;-81
2021/05/29 04:33:26;;;;;;;11.25;6.80;;;14.80;99.90;;;;;;5036393;28;20398;-82
2021/05/29 04:35:53;;;;;;;9.85;7.22;;;14.80;99.90;;;;;;5037835;28;20050;-83
2021/05/29 04:38:19;;;;;;;10.75;7.13;;;14.70;99.90;;;;;;5038681;28;20403;-82
2021/05/29 04:40:46;;;;;;;10.45;8.13;;;14.50;99.90;;;;;;5039723;28;20136;-82
2021/05/29 04:43:12;;;;;;;8.63;7.72;;;13.90;99.90;;;;;;5038094;28;20080;-82
2021/05/29 04:45:40;;;;;;;8.90;7.88;;;13.30;99.90;;;;;;5037132;28;20462;-80
2021/05/29 04:48:08;;;;;;;10.30;7.72;;;13.20;99.90;;;;;;5036053;28;20055;-80
2021/05/29 04:51:11;;;;;;;13.27;8.00;;;13.30;99.90;;;;;;5039271;28;20236;-81
2021/05/29 04:53:26;;;;;;;8.90;7.57;;;13.30;99.90;;;;;;5072548;23;20049;-83
2021/05/29 04:55:59;;;;;;;12.35;7.22;;;13.30;99.90;;;;;;5073622;28;20117;-84
2021/05/29 04:58:42;;;;;;;7.78;6.93;;;13.40;99.90;;;;;;5068024;28;20144;-82
2021/05/29 05:01:15;;;;;;;9.10;7.47;;;13.50;99.90;;;;;;5065525;28;20067;-81
2021/05/29 05:03:56;;;;;;;11.23;7.10;;;13.60;99.90;;;;;;5063458;28;20107;-81
2021/05/29 05:06:35;;;;;;;9.10;7.10;;;13.50;99.90;;;;;;5064260;28;20076;-82
2021/05/29 05:09:12;;;;;;;13.32;7.82;;;13.50;99.90;;;;;;5064032;28;20092;-81
2021/05/29 05:11:47;;;;;;;15.48;7.53;;;13.60;99.90;;;;;;5062167;28;20057;-80
2021/05/29 05:14:26;;;;;;;11.07;7.13;;;13.80;99.90;;;;;;5061530;28;20097;-81
2021/05/29 05:17:25;;;;;;;13.32;7.03;;;14.00;99.90;;;;;;5066051;28;20258;-79
2021/05/29 05:19:52;;;;;;;10.75;7.43;;;14.90;99.90;;;;;;5062207;28;20049;-81
2021/05/29 05:22:19;;;;;;;12.77;7.05;;;16.20;99.90;;;;;;5065722;28;20048;-80
2021/05/29 05:24:45;;;;;;;8.82;7.20;;;16.90;99.90;;;;;;5059396;28;20053;-79
2021/05/29 05:27:11;;;;;;;10.15;7.45;;;17.50;99.90;;;;;;5060300;28;20446;-80
2021/05/29 05:29:38;;;;;;;12.75;7.53;;;18.20;99.90;;;;;;5056380;28;20123;-80
2021/05/29 05:32:04;;;;;;;10.65;7.90;;;19.20;99.90;;;;;;5054409;28;20484;-80
2021/05/29 05:34:31;;;;;;;10.75;7.93;;;20.10;99.90;;;;;;5054156;28;20614;-79
2021/05/29 05:36:57;;;;;;;9.95;7.93;;;20.40;99.90;;;;;;5054331;28;20136;-79
2021/05/29 05:39:25;;;;;;;12.90;7.40;;;21.00;99.90;;;;;;5056404;28;20135;-79
2021/05/29 05:41:51;;;;;;;9.57;8.02;;;21.80;99.90;;;;;;5056425;28;20088;-80
2021/05/29 05:44:17;;;;;;;10.77;7.93;;;22.30;99.90;;;;;;5056429;28;20045;-80
2021/05/29 05:46:44;;;;;;;9.35;8.30;;;22.60;99.90;;;;;;5057895;28;20088;-80
2021/05/29 05:49:10;;;;;;;10.77;9.57;;;22.80;99.90;;;;;;5058600;28;20137;-79
2021/05/29 05:51:36;;;;;;;14.77;9.15;;;23.00;99.90;;;;;;5058438;28;20513;-79
2021/05/29 05:54:04;;;;;;;9.65;7.82;;;23.10;99.90;;;;;;5057258;28;20120;-80
2021/05/29 05:56:32;;;;;;;10.38;8.18;;;23.30;99.90;;;;;;5062916;28;20084;-82
2021/05/29 05:58:59;;;;;;;9.20;7.35;;;23.40;99.90;;;;;;5061636;28;20044;-81
2021/05/29 06:01:26;;;;;;;8.05;7.13;;;23.50;99.90;;;;;;5058978;28;20573;-80
2021/05/29 06:03:53;;;;;;;11.13;7.60;;;23.40;99.90;;;;;;5060442;28;20108;-82
2021/05/29 06:06:20;;;;;;;10.10;7.55;;;22.90;99.90;;;;;;5050670;28;20453;-80
2021/05/29 06:08:46;;;;;;;8.77;7.50;;;22.90;99.90;;;;;;5058721;28;20049;-81
2021/05/29 06:11:15;;;;;;;7.82;6.95;;;22.60;99.90;;;;;;5061513;28;20052;-82
2021/05/29 06:19:14;;;;;;;8.38;7.57;;;23.10;99.90;;;;;;5055334;28;20048;-78
2021/05/29 06:21:45;;;;;;;7.65;6.28;;;23.40;99.90;;;;;;5057283;28;20060;-79
2021/05/29 06:24:14;;;;;;;11.85;7.85;;;23.40;99.90;;;;;;5060994;28;20092;-78
2021/05/29 06:26:40;;;;;;;8.13;6.90;;;23.60;99.90;;;;;;5060239;28;20408;-78
2021/05/29 06:29:08;;;;;;;7.63;6.45;;;23.50;99.90;;;;;;5059997;28;20061;-81
2021/05/29 06:31:34;;;;;;;11.48;7.43;;;23.50;99.90;;;;;;5062070;28;20108;-82
2021/05/29 06:34:00;;;;;;;7.88;6.50;;;23.60;99.90;;;;;;5058715;28;20068;-80
2021/05/29 06:36:27;;;;;;;8.50;6.70;;;23.20;99.90;;;;;;5059148;28;20053;-80
2021/05/29 06:38:53;;;;;;;10.27;7.72;;;23.20;99.90;;;;;;5058396;28;20084;-79
2021/05/29 06:41:20;;;;;;;8.80;7.40;;;23.00;99.90;;;;;;5060303;28;20122;-79
2021/05/29 06:43:46;;;;;;;9.52;7.32;;;23.00;99.90;;;;;;5063523;28;20132;-81
2021/05/29 06:46:13;;;;;;;8.10;6.80;;;23.30;99.90;;;;;;5064411;28;20081;-80
2021/05/29 06:48:40;;;;;;;9.13;7.30;;;23.70;99.90;;;;;;5066222;28;20131;-79
2021/05/29 06:51:07;;;;;;;8.13;7.25;;;23.90;99.90;;;;;;5062125;28;20053;-79
2021/05/29 06:53:37;;;;;;;9.07;7.10;;;24.30;99.90;;;;;;5064039;28;20052;-80
2021/05/29 06:58:50;;;;;;;8.68;7.55;;;24.50;99.90;;;;;;5060190;28;20532;-80
2021/05/29 07:01:19;;;;;;;10.80;7.10;;;23.80;99.90;;;;;;5060963;28;20072;-78
2021/05/29 07:03:45;;;;;;;10.48;7.28;;;23.90;99.90;;;;;;5063215;28;20065;-80
2021/05/29 07:06:12;;;;;;;9.13;6.90;;;24.20;99.90;;;;;;5063016;28;20057;-78
2021/05/29 07:08:38;;;;;;;8.10;7.00;;;24.60;99.90;;;;;;5059975;28;20060;-80
2021/05/29 07:11:05;;;;;;;9.25;7.05;;;24.50;99.90;;;;;;5060264;28;20085;-77
2021/05/29 07:13:32;;;;;;;9.85;7.68;;;24.70;99.90;;;;;;5063146;28;20080;-81
2021/05/29 07:15:58;;;;;;;9.05;7.20;;;25.00;99.90;;;;;;5061378;28;20106;-82
2021/05/29 07:18:29;;;;;;;8.93;6.78;;;25.10;99.90;;;;;;5064870;28;20091;-82
2021/05/29 07:20:56;;;;;;;11.67;6.57;;;24.50;99.90;;;;;;5063885;28;20055;-79
2021/05/29 07:23:23;;;;;;;10.50;6.22;;;24.70;99.90;;;;;;5061863;28;20053;-82
2021/05/29 07:25:49;;;;;;;7.78;6.00;;;25.10;99.90;;;;;;5062215;28;20079;-82
2021/05/29 07:28:16;;;;;;;8.18;6.60;;;25.50;99.00;;;;;;5051514;28;20079;-81
2021/05/29 07:30:43;;;;;;;6.88;5.97;;;25.70;98.40;;;;;;5061136;28;20132;-80
2021/05/29 07:33:09;;;;;;;7.43;6.22;;;26.00;98.70;;;;;;5063264;28;20041;-78
2021/05/29 07:35:36;;;;;;;7.78;6.97;;;26.20;97.70;;;;;;5061008;28;20064;-81
2021/05/29 07:38:03;;;;;;;7.88;6.53;;;26.30;97.70;;;;;;5060160;28;20083;-80
2021/05/29 07:40:29;;;;;;;8.38;7.25;;;26.40;97.80;;;;;;5059675;28;20136;-79
2021/05/29 07:42:56;;;;;;;8.10;6.90;;;25.40;97.10;;;;;;5059215;28;20084;-79
2021/05/29 07:45:22;;;;;;;8.23;6.13;;;25.10;98.60;;;;;;5059371;28;20124;-80
2021/05/29 07:47:49;;;;;;;7.25;6.55;;;25.50;98.70;;;;;;5062477;28;20079;-80
2021/05/29 07:50:15;;;;;;;7.85;6.70;;;25.80;98.30;;;;;;5050651;28;20107;-80
2021/05/29 07:52:43;;;;;;;7.40;6.30;;;25.40;97.70;;;;;;5052884;28;20076;-82
2021/05/29 07:55:11;;;;;;;7.60;6.75;;;25.20;99.40;;;;;;5053166;28;20041;-81
2021/05/29 07:57:38;;;;;;;7.00;6.28;;;25.40;97.70;;;;;;5058875;28;20052;-79
2021/05/29 08:00:07;;;;;;;9.43;6.80;;;25.80;98.20;;;;;;5059375;28;20132;-81
2021/05/29 08:02:34;;;;;;;8.10;6.57;;;26.00;98.00;;;;;;5063672;28;20052;-80
2021/05/29 08:05:00;;;;;;;8.18;6.35;;;26.00;97.50;;;;;;5051592;28;20308;-80
2021/05/29 08:07:27;;;;;;;9.98;6.80;;;26.20;96.80;;;;;;5067568;28;20084;-81
2021/05/29 08:09:55;;;;;;;8.13;6.35;;;26.10;96.30;;;;;;5067065;28;20112;-81
2021/05/29 08:12:22;;;;;;;9.45;6.90;;;26.20;97.00;;;;;;5065404;28;20056;-79
2021/05/29 08:14:48;;;;;;;7.63;6.47;;;25.40;97.50;;;;;;5065358;28;20076;-80
2021/05/29 08:17:14;;;;;;;7.13;6.40;;;25.70;98.10;;;;;;5067373;28;20049;-80
2021/05/29 08:19:41;;;;;;;8.43;6.40;;;25.80;98.70;;;;;;5063973;28;20049;-81
2021/05/29 08:22:07;;;;;;;6.70;5.40;;;25.50;97.80;;;;;;5068190;28;20052;-79
2021/05/29 08:24:33;;;;;;;6.43;5.63;;;25.40;97.10;;;;;;5068250;28;20049;-81
2021/05/29 08:27:01;;;;;;;6.00;5.20;;;25.20;97.50;;;;;;5064674;28;20044;-80
2021/05/29 08:29:27;;;;;;;7.60;5.60;;;25.10;98.20;;;;;;5069628;28;20041;-80
2021/05/29 08:31:54;;;;;;;8.43;6.40;;;24.90;96.70;;;;;;5063054;28;20060;-78
2021/05/29 08:34:20;;;;;;;10.10;5.60;;;24.30;98.00;;;;;;5061780;28;20041;-80
2021/05/29 08:36:46;;;;;;;8.73;6.20;;;24.40;98.70;;;;;;5062676;28;20140;-79
2021/05/29 08:39:13;;;;;;;6.93;5.72;;;24.50;98.90;;;;;;5063086;28;20053;-81
2021/05/29 08:41:39;;;;;;;7.03;5.15;;;24.60;99.30;;;;;;5058155;28;20509;-80
2021/05/29 08:44:09;;;;;;;7.25;5.60;;;24.70;98.50;;;;;;5061729;28;20108;-79
2021/05/29 08:46:35;;;;;;;6.32;5.18;;;23.80;98.00;;;;;;5061126;28;20097;-80
2021/05/29 08:49:02;;;;;;;6.68;5.32;;;24.20;99.40;;;;;;5059368;28;20572;-79
2021/05/29 08:51:28;;;;;;;7.70;5.20;;;24.00;98.00;;;;;;5059284;28;20076;-81
2021/05/29 08:53:57;;;;;;;6.18;5.10;;;23.80;98.60;;;;;;5063632;28;20611;-79
2021/05/29 08:56:24;;;;;;;7.78;5.57;;;23.50;98.30;;;;;;5065614;28;20080;-80
2021/05/29 08:58:51;;;;;;;5.88;5.28;;;23.80;98.20;;;;;;5061789;28;20140;-79
2021/05/29 09:01:20;;;;;;;6.82;4.80;;;23.70;99.50;;;;;;5056532;28;20140;-79
2021/05/29 09:03:49;;;;;;;7.63;5.30;;;24.00;98.90;;;;;;5061882;28;20576;-81
2021/05/29 09:06:17;;;;;;;5.90;5.10;;;24.00;98.50;;;;;;5063089;28;20067;-80
2021/05/29 09:08:54;;;;;;;8.00;5.18;;;24.60;98.40;;;;;;5065471;28;20052;-81
2021/05/29 09:11:43;;;;;;;6.75;5.05;;;24.90;95.80;;;;;;5066680;28;20134;-80
2021/05/29 09:14:42;;;;;;;6.32;5.25;;;24.90;97.10;;;;;;5061090;28;20067;-82
2021/05/29 09:17:16;;;;;;;6.70;5.30;;;24.70;97.10;;;;;;4992204;28;20129;-80
2021/05/29 09:19:54;;;;;;;8.50;5.07;;;24.50;98.00;;;;;;4993496;28;20054;-81
2021/05/29 09:22:23;;;;;;;6.72;5.00;;;24.50;98.30;;;;;;5026324;28;20127;-81
2021/05/29 09:25:01;;;;;;;11.23;6.13;;;24.30;97.50;;;;;;5060926;28;20076;-82
2021/05/29 09:27:28;;;;;;;7.05;5.43;;;22.80;97.70;;;;;;5063633;28;20073;-80
2021/05/29 09:29:55;;;;;;;7.22;5.35;;;21.90;99.40;;;;;;5059785;28;20147;-81
2021/05/29 09:32:22;;;;;;;8.25;5.07;;;22.10;99.80;;;;;;5058342;28;20040;-80
2021/05/29 09:34:51;;;;;;;7.00;5.53;;;22.20;99.60;;;;;;5061205;28;20101;-80
2021/05/29 09:37:35;;;;;;;7.45;5.60;;;21.60;99.90;;;;;;5060272;28;20108;-81
2021/05/29 09:40:05;;;;;;;7.13;4.78;;;21.80;99.10;;;;;;5055832;28;20111;-81
2021/05/29 09:42:34;;;;;;;6.85;5.25;;;21.90;99.90;;;;;;5060034;28;20122;-81
2021/05/29 09:45:19;;;;;;;5.30;4.38;;;22.00;99.90;;;;;;5060932;28;20040;-81
2021/05/29 09:48:15;;;;;;;5.45;4.65;;;22.20;99.60;;;;;;5061060;28;20107;-80
2021/05/29 09:51:05;;;;;;;5.85;4.28;;;21.80;99.80;;;;;;5059411;28;20056;-81
2021/05/29 09:53:33;;;;;;;5.63;4.70;;;21.80;99.80;;;;;;5063694;28;20081;-81
2021/05/29 09:56:00;;;;;;;5.07;4.18;;;22.00;99.50;;;;;;5062150;28;20045;-81
2021/05/29 09:58:50;;;;;;;5.22;4.30;;;21.80;99.40;;;;;;5067699;28;20099;-82
2021/05/29 10:01:36;;;;;;;6.82;4.35;;;21.50;99.30;;;;;;5068947;28;20071;-81
2021/05/29 10:04:04;;;;;;;4.80;4.00;;;21.40;99.50;;;;;;5062346;28;20064;-79
2021/05/29 10:06:31;;;;;;;5.47;3.97;;;21.40;99.90;;;;;;5063173;28;20094;-80
2021/05/29 10:08:57;;;;;;;7.45;4.40;;;21.40;99.90;;;;;;5063906;28;20083;-80
2021/05/29 10:11:24;;;;;;;6.50;4.10;;;21.60;99.90;;;;;;5063044;28;20099;-81
2021/05/29 10:13:50;;;;;;;5.05;4.28;;;21.50;99.90;;;;;;5063759;28;20083;-81
2021/05/29 10:16:18;;;;;;;6.05;4.53;;;21.20;99.90;;;;;;5067212;28;20077;-81
2021/05/29 10:18:50;;;;;;;4.68;4.18;;;21.20;99.90;;;;;;5065739;28;20514;-79
2021/05/29 10:21:19;;;;;;;7.82;3.50;;;21.20;99.90;;;;;;5066797;28;20056;-79
2021/05/29 10:23:48;;;;;;;5.70;3.97;;;21.20;98.80;;;;;;5072771;28;20053;-79
2021/05/29 10:26:15;;;;;;;6.50;4.50;;;21.10;99.50;;;;;;5066268;28;20048;-80
2021/05/29 10:28:41;;;;;;;6.60;4.10;;;21.00;99.90;;;;;;5063083;28;20052;-82
2021/05/29 10:31:08;;;;;;;7.35;4.70;;;21.10;99.90;;;;;;5060048;28;20076;-80
2021/05/29 10:33:40;;;;;;;6.60;4.88;;;21.10;99.90;;;;;;5061127;28;20128;-81
2021/05/29 10:36:07;;;;;;;6.05;4.47;;;21.00;99.90;;;;;;5060272;28;20041;-80
2021/05/29 10:38:44;;;;;;;5.57;4.43;;;21.00;99.90;;;;;;5060847;28;20145;-79
2021/05/29 10:41:10;;;;;;;6.82;5.15;;;20.70;99.90;;;;;;5059191;28;20052;-80
2021/05/29 10:43:37;;;;;;;6.35;4.70;;;20.70;99.90;;;;;;5059171;28;20132;-79
2021/05/29 10:46:09;;;;;;;6.13;4.65;;;20.70;99.90;;;;;;5059888;28;20124;-82
2021/05/29 10:48:43;;;;;;;;;;;20.50;99.90;;;;;;5062106;28;20045;-80
2021/05/29 10:51:10;;;;;;;6.82;4.72;;;20.30;99.90;;;;;;5061260;28;19991;-82
2021/05/29 10:53:45;;;;;;;5.43;4.43;;;20.50;99.90;;;;;;5073371;22;20202;-80
2021/05/29 10:56:34;;;;;;;5.90;4.25;;;20.60;99.90;;;;;;5053012;28;20041;-78
2021/05/29 10:59:09;;;;;;;7.03;4.50;;;21.00;99.90;;;;;;5052300;28;20535;-78
2021/05/29 11:02:08;;;;;;;8.27;4.88;;;20.80;99.90;;;;;;5055123;28;20057;-78
2021/05/29 11:04:35;;;;;;;6.63;4.35;;;20.60;99.90;;;;;;4993746;28;20050;-79
2021/05/29 11:07:30;;;;;;;5.22;4.53;;;20.60;99.90;;;;;;5042148;28;20374;-78
2021/05/29 11:09:58;;;;;;;7.93;4.88;;;20.80;99.90;;;;;;5051109;28;20056;-80
2021/05/29 11:12:51;;;;;;;8.65;5.10;;;20.70;99.90;;;;;;5056047;28;20060;-79
2021/05/29 11:15:20;;;;;;;7.30;5.20;;;20.70;99.90;;;;;;5057095;28;20111;-80
2021/05/29 11:18:10;;;;;;;7.15;5.72;;;20.50;99.90;;;;;;5056153;28;20099;-79
2021/05/29 11:21:08;;;;;;;5.40;4.70;;;20.20;99.90;;;;;;5056579;28;20130;-79
2021/05/29 11:23:35;;;;;;;7.82;5.72;;;20.30;99.90;;;;;;5044634;28;20048;-80
2021/05/29 11:26:02;;;;;;;7.35;5.22;;;20.20;99.90;;;;;;5058189;28;20053;-83
2021/05/29 11:28:30;;;;;;;7.60;5.05;;;20.40;99.90;;;;;;5059456;28;20059;-81
2021/05/29 11:30:59;;;;;;;9.00;6.43;;;20.90;99.90;;;;;;5059333;28;20474;-79
2021/05/29 11:33:25;;;;;;;7.78;6.18;;;21.20;99.90;;;;;;5059149;28;20049;-82
2021/05/29 11:35:53;;;;;;;7.15;6.22;;;21.20;99.90;;;;;;5059553;28;20459;-79
2021/05/29 11:38:24;;;;;;;6.35;5.57;;;21.00;99.90;;;;;;5059417;28;20052;-79
2021/05/29 11:40:56;;;;;;;6.28;5.43;;;20.90;99.90;;;;;;5058087;28;20422;-79
2021/05/29 11:43:35;;;;;;;19.85;8.13;;;20.90;99.90;;;;;;5058051;28;20144;-79
2021/05/29 11:46:02;;;;;;;8.32;6.70;;;21.00;99.90;;;;;;5059620;28;20045;-79
2021/05/29 11:48:35;;;;;;;8.48;6.30;;;21.40;99.90;;;;;;5060323;28;20041;-79
2021/05/29 11:51:12;;;;;;;8.95;6.78;;;21.40;99.90;;;;;;5058551;28;20099;-79
2021/05/29 11:53:44;;;;;;;9.35;7.55;;;21.50;99.90;;;;;;5058341;28;20690;-79
2021/05/29 11:56:12;;;;;;;10.98;7.25;;;21.50;99.90;;;;;;5060495;28;20074;-79
2021/05/29 11:58:56;;;;;;;10.20;7.68;;;21.60;99.90;;;;;;5059128;28;20114;-79
2021/05/29 12:01:25;;;;;;;9.40;8.02;;;21.40;99.90;;;;;;5058177;28;20049;-78
2021/05/29 12:03:54;;;;;;;10.73;7.65;;;21.00;99.90;;;;;;5052833;28;20057;-81
2021/05/29 12:06:41;;;;;;;9.40;8.23;;;20.70;99.90;;;;;;5053030;28;20056;-80
2021/05/29 12:09:13;;;;;;;9.48;8.07;;;20.50;99.90;;;;;;5057752;28;20049;-79
2021/05/29 12:11:41;;;;;;;9.45;8.55;;;20.40;99.90;;;;;;5057202;28;20132;-79
2021/05/29 12:14:12;;;;;;;9.10;8.20;;;20.30;99.90;;;;;;5056679;28;20049;-82
2021/05/29 12:16:43;;;;;;;8.73;7.82;;;20.20;99.90;;;;;;5060004;28;20061;-81
2021/05/29 12:19:29;;;;;;;9.48;8.10;;;20.40;99.90;;;;;;5060329;28;20053;-83
2021/05/29 12:21:57;;;;;;;8.80;7.90;;;20.70;99.90;;;;;;5059714;28;20063;-81
2021/05/29 12:24:26;;;;;;;8.95;8.02;;;20.90;99.90;;;;;;5058655;28;20102;-81
2021/05/29 12:26:54;;;;;;;9.15;7.95;;;21.20;99.90;;;;;;5058745;28;20056;-83
2021/05/29 12:29:22;;;;;;;8.88;7.95;;;21.40;99.90;;;;;;5059169;28;20053;-81
2021/05/29 12:31:52;;;;;;;11.43;8.40;;;21.40;99.90;;;;;;5059669;28;20079;-82
2021/05/29 12:34:19;;;;;;;8.50;7.70;;;21.40;99.90;;;;;;5059909;28;20053;-81
2021/05/29 12:37:05;;;;;;;10.13;8.68;;;21.30;99.90;;;;;;5058949;28;20417;-82
2021/05/29 12:39:53;;;;;;;10.85;9.38;;;21.50;99.90;;;;;;5059216;28;20053;-82
2021/05/29 12:42:42;;;;;;;10.15;9.10;;;21.30;99.90;;;;;;5058954;28;20091;-82
2021/05/29 12:45:17;;;;;;;10.13;9.02;;;21.20;99.90;;;;;;5057906;28;20076;-79
2021/05/29 12:47:52;;;;;;;10.27;9.27;;;21.30;99.90;;;;;;5056538;28;20568;-81
2021/05/29 12:50:19;;;;;;;9.48;8.43;;;21.50;99.90;;;;;;5057517;28;20076;-79
2021/05/29 12:52:46;;;;;;;10.15;8.68;;;21.70;99.90;;;;;;5057245;28;20091;-82
2021/05/29 12:55:21;;;;;;;13.75;9.07;;;21.80;99.90;;;;;;5058597;28;20045;-80
2021/05/29 12:57:47;;;;;;;12.25;10.88;;;22.10;99.90;;;;;;5058336;28;20446;-82
2021/05/29 13:00:33;;;;;;;11.40;10.20;;;21.80;99.90;;;;;;5059104;28;20080;-81
2021/05/29 13:09:09;;;;;;;12.35;11.05;;;21.80;99.90;;;;;;5057930;28;20523;-80
2021/05/29 13:11:37;;;;;;;11.02;10.00;;;21.70;99.90;;;;;;5058928;28;20099;-82